Disclaimer

Please do not use the information listed here in-flight or in-navigation, as they are not provided to us by the airports but are provided by volunteers, so they might be outdated.

Search


Regions


Airport information page

Radio informations:
Tower (TWR) - 119.8 MHz
Ground (GND) - 119.8 MHz
Approach (APP) - 119.8 MHz

Airport informations:
Latitude: 34° 33' 17.50" S
Longitude: 020° 15' 02.45" E
Elevation: 52 feet - 16 meters
Operating hours: Remarks
Operating agency: Military
Timezone: UTC+2
Fuel: Jet A1, without icing nhibitor.

Runway information:
10/28 - 6926 x 131 feet< - >2111 x 40 meters
17/35 - 10220 x 151 feet< - >3115 x 46 meters

Recent METARs:
FAOB 160800Z AUTO 18011KT //// // ////// 25/17 Q1017
FAOB 160800Z AUTO 18011KT //// // ////// 25/17 Q1017
FAOB 160900Z AUTO 16011KT //// // ////// 23/17 Q1017

Airport on the map: